Time;durP1;ratioP1;P1;durP2;ratioP2;P2;SDS_P1;SDS_P2;PMS_P1;PMS_P2;Temp;Humidity;BMP_temperature;BMP_pressure;BME280_temperature;BME280_humidity;BME280_pressure;Samples;Min_cycle;Max_cycle;Signal;HPM_P1;HPM_P2
2021/10/04 00:02:06;;;;;;;4.60;3.50;;;;;;;;;;5061878;28;20938;-66
2021/10/04 00:04:32;;;;;;;3.40;3.07;;;;;;;;;;5062603;28;20757;-66
2021/10/04 00:06:58;;;;;;;4.17;3.50;;;;;;;;;;5062696;28;20800;-66
2021/10/04 00:09:24;;;;;;;5.00;3.53;;;;;;;;;;5062463;28;20895;-66
2021/10/04 00:11:51;;;;;;;5.07;3.03;;;;;;;;;;5061981;28;20448;-66
2021/10/04 00:14:20;;;;;;;4.77;3.60;;;;;;;;;;5062644;28;20467;-66
2021/10/04 00:16:47;;;;;;;4.90;3.10;;;;;;;;;;5061998;28;20410;-66
2021/10/04 00:19:13;;;;;;;4.63;3.30;;;;;;;;;;5062795;28;20468;-67
2021/10/04 00:21:39;;;;;;;4.30;3.23;;;;;;;;;;5062180;28;20420;-67
2021/10/04 00:24:05;;;;;;;5.43;3.03;;;;;;;;;;5062015;28;20406;-66
2021/10/04 00:26:31;;;;;;;3.60;2.97;;;;;;;;;;5062085;28;20549;-66
2021/10/04 00:28:57;;;;;;;6.50;3.50;;;;;;;;;;5062154;28;20398;-66
2021/10/04 00:31:23;;;;;;;4.67;3.43;;;;;;;;;;5062520;28;20398;-66
2021/10/04 00:33:49;;;;;;;4.87;3.10;;;;;;;;;;5061905;28;20910;-67
2021/10/04 00:36:15;;;;;;;5.63;2.47;;;;;;;;;;5061847;28;20421;-67
2021/10/04 00:38:42;;;;;;;5.00;3.07;;;;;;;;;;5060940;28;20406;-67
2021/10/04 00:41:08;;;;;;;3.70;3.00;;;;;;;;;;5061117;28;20547;-67
2021/10/04 00:43:34;;;;;;;3.70;2.77;;;;;;;;;;5059724;28;20437;-67
2021/10/04 00:46:00;;;;;;;3.90;2.20;;;;;;;;;;5061703;28;20449;-67
2021/10/04 00:48:26;;;;;;;4.00;3.10;;;;;;;;;;5061092;28;20477;-67
2021/10/04 00:50:52;;;;;;;4.90;3.70;;;;;;;;;;5060840;28;20497;-67
2021/10/04 00:53:19;;;;;;;3.80;3.10;;;;;;;;;;5060855;28;20431;-67
2021/10/04 00:55:45;;;;;;;3.60;3.07;;;;;;;;;;5061300;28;20893;-67
2021/10/04 00:58:11;;;;;;;4.30;3.50;;;;;;;;;;5059389;28;20412;-67
2021/10/04 01:00:37;;;;;;;4.00;2.83;;;;;;;;;;5060645;28;20432;-67
2021/10/04 01:03:03;;;;;;;3.60;3.10;;;;;;;;;;5059922;28;20429;-67
2021/10/04 01:05:30;;;;;;;3.93;3.50;;;;;;;;;;5052401;28;20461;-67
2021/10/04 01:07:56;;;;;;;3.83;2.73;;;;;;;;;;5061285;28;20474;-67
2021/10/04 01:10:22;;;;;;;4.27;2.63;;;;;;;;;;5059590;28;20405;-67
2021/10/04 01:12:49;;;;;;;3.60;2.90;;;;;;;;;;5059882;28;20456;-67
2021/10/04 01:15:16;;;;;;;3.60;2.60;;;;;;;;;;5060425;28;20879;-67
2021/10/04 01:17:43;;;;;;;3.80;2.90;;;;;;;;;;5059292;28;20417;-67
2021/10/04 01:20:35;;;;;;;3.83;3.30;;;;;;;;;;5060576;28;20409;-67
2021/10/04 01:23:01;;;;;;;3.80;3.00;;;;;;;;;;5057384;28;20811;-67
2021/10/04 01:25:27;;;;;;;3.60;3.10;;;;;;;;;;5060363;28;20468;-67
2021/10/04 01:27:54;;;;;;;4.07;3.67;;;;;;;;;;5062052;28;20433;-67
2021/10/04 01:30:22;;;;;;;3.50;3.17;;;;;;;;;;5061624;28;20862;-66
2021/10/04 01:32:48;;;;;;;4.63;3.23;;;;;;;;;;5060928;28;20425;-66
2021/10/04 01:35:15;;;;;;;4.00;3.33;;;;;;;;;;5060682;28;20891;-66
2021/10/04 01:37:41;;;;;;;6.00;3.60;;;;;;;;;;5062145;28;20402;-66
2021/10/04 01:40:08;;;;;;;4.43;3.30;;;;;;;;;;5062724;28;20409;-66
2021/10/04 01:42:34;;;;;;;4.23;3.23;;;;;;;;;;5062466;28;20441;-66
2021/10/04 01:45:00;;;;;;;3.37;2.60;;;;;;;;;;5062366;28;20389;-66
2021/10/04 01:47:26;;;;;;;4.53;2.90;;;;;;;;;;5061922;28;20473;-66
2021/10/04 01:49:52;;;;;;;3.43;2.70;;;;;;;;;;5062137;28;20429;-66
2021/10/04 01:52:18;;;;;;;3.90;3.17;;;;;;;;;;5062391;28;20468;-66
2021/10/04 01:54:44;;;;;;;6.00;3.93;;;;;;;;;;5061894;28;20414;-66
2021/10/04 01:57:10;;;;;;;5.33;3.93;;;;;;;;;;5060851;28;20412;-66
2021/10/04 01:59:36;;;;;;;5.30;3.77;;;;;;;;;;5059134;28;20906;-67
2021/10/04 02:02:03;;;;;;;8.00;4.97;;;;;;;;;;5041721;28;20434;-67
2021/10/04 02:04:29;;;;;;;4.27;3.37;;;;;;;;;;5041251;28;20422;-67
2021/10/04 02:06:55;;;;;;;4.93;3.73;;;;;;;;;;5040362;28;20504;-67
2021/10/04 02:09:21;;;;;;;5.73;3.40;;;;;;;;;;5041660;28;20425;-67
2021/10/04 02:11:47;;;;;;;4.70;3.43;;;;;;;;;;5040954;28;20402;-67
2021/10/04 02:14:13;;;;;;;3.40;2.67;;;;;;;;;;5040395;28;20410;-67
2021/10/04 02:16:40;;;;;;;3.87;2.77;;;;;;;;;;5041458;28;20413;-67
2021/10/04 02:19:06;;;;;;;3.77;2.40;;;;;;;;;;5041769;28;20462;-67
2021/10/04 02:21:32;;;;;;;3.50;2.47;;;;;;;;;;5043687;28;20422;-68
2021/10/04 02:23:58;;;;;;;4.17;2.37;;;;;;;;;;5045031;28;20410;-67
2021/10/04 02:26:24;;;;;;;3.23;2.20;;;;;;;;;;5044266;28;20458;-67
2021/10/04 02:28:51;;;;;;;3.60;2.20;;;;;;;;;;5043859;28;20410;-67
2021/10/04 02:31:17;;;;;;;2.30;1.50;;;;;;;;;;5043909;28;20485;-67
2021/10/04 02:33:43;;;;;;;2.43;1.50;;;;;;;;;;5040509;28;20488;-67
2021/10/04 02:36:09;;;;;;;2.43;1.40;;;;;;;;;;5041543;28;20444;-67
2021/10/04 02:38:36;;;;;;;2.20;1.60;;;;;;;;;;5058278;28;20460;-67
2021/10/04 02:41:03;;;;;;;3.13;1.40;;;;;;;;;;5057691;28;20418;-67
2021/10/04 02:43:29;;;;;;;2.23;1.50;;;;;;;;;;5058045;28;20424;-67
2021/10/04 02:45:55;;;;;;;1.87;1.33;;;;;;;;;;5057933;28;20453;-67
2021/10/04 02:48:21;;;;;;;2.23;1.57;;;;;;;;;;5058855;28;20450;-66
2021/10/04 02:50:48;;;;;;;3.13;1.70;;;;;;;;;;5058420;28;20455;-67
2021/10/04 02:53:14;;;;;;;2.23;1.37;;;;;;;;;;5059947;28;20786;-67
2021/10/04 02:55:40;;;;;;;2.20;1.63;;;;;;;;;;5059844;28;20416;-67
2021/10/04 02:58:06;;;;;;;3.03;1.70;;;;;;;;;;5059989;28;20405;-67
2021/10/04 03:00:34;;;;;;;3.03;1.50;;;;;;;;;;5050051;28;20548;-67
2021/10/04 03:03:01;;;;;;;2.37;1.57;;;;;;;;;;5039777;28;20426;-67
2021/10/04 03:05:27;;;;;;;2.83;1.63;;;;;;;;;;5039641;28;20545;-67
2021/10/04 03:07:53;;;;;;;2.00;1.50;;;;;;;;;;5039733;28;20410;-67
2021/10/04 03:10:19;;;;;;;2.43;1.50;;;;;;;;;;5039460;28;20452;-67
2021/10/04 03:12:45;;;;;;;2.13;1.53;;;;;;;;;;5039446;28;20453;-67
2021/10/04 03:15:11;;;;;;;2.80;1.47;;;;;;;;;;5038107;28;20426;-67
2021/10/04 03:17:37;;;;;;;2.47;1.53;;;;;;;;;;5049156;28;20405;-67
2021/10/04 03:20:04;;;;;;;2.20;1.37;;;;;;;;;;5053523;28;21601;-67
2021/10/04 03:22:30;;;;;;;2.90;1.27;;;;;;;;;;5039740;28;20673;-67
2021/10/04 03:24:56;;;;;;;2.27;1.57;;;;;;;;;;5039675;28;20484;-67
2021/10/04 03:27:22;;;;;;;2.00;1.30;;;;;;;;;;5039651;28;20815;-67
2021/10/04 03:29:48;;;;;;;2.43;1.60;;;;;;;;;;5039150;28;20444;-67
2021/10/04 03:32:14;;;;;;;3.90;1.50;;;;;;;;;;5038093;28;20418;-67
2021/10/04 03:34:40;;;;;;;3.20;1.57;;;;;;;;;;5038971;28;21005;-67
2021/10/04 03:37:06;;;;;;;2.63;1.37;;;;;;;;;;5038797;28;20891;-67
2021/10/04 03:39:32;;;;;;;2.53;1.50;;;;;;;;;;5038971;28;20407;-67
2021/10/04 03:41:58;;;;;;;2.60;1.50;;;;;;;;;;5039132;28;20776;-67
2021/10/04 03:44:24;;;;;;;2.27;1.50;;;;;;;;;;5039090;28;20407;-67
2021/10/04 03:46:50;;;;;;;3.70;1.90;;;;;;;;;;5039339;28;20524;-67
2021/10/04 03:49:16;;;;;;;2.53;1.40;;;;;;;;;;5038048;28;20398;-67
2021/10/04 03:51:43;;;;;;;2.10;1.50;;;;;;;;;;5038509;28;20461;-66
2021/10/04 03:54:09;;;;;;;2.53;1.60;;;;;;;;;;5039341;28;20738;-67
2021/10/04 03:56:35;;;;;;;2.13;1.53;;;;;;;;;;5038670;28;20402;-67
2021/10/04 03:59:01;;;;;;;3.70;1.70;;;;;;;;;;5039120;28;20478;-67
2021/10/04 04:01:28;;;;;;;8.90;1.60;;;;;;;;;;5038840;28;20410;-67
2021/10/04 04:03:54;;;;;;;2.70;1.53;;;;;;;;;;5038675;28;20990;-66
2021/10/04 04:06:21;;;;;;;3.10;1.40;;;;;;;;;;5038276;28;20453;-66
2021/10/04 04:08:47;;;;;;;4.00;1.70;;;;;;;;;;5038959;28;20410;-67
2021/10/04 04:11:13;;;;;;;2.10;1.50;;;;;;;;;;5038446;28;20425;-67
2021/10/04 04:13:39;;;;;;;2.87;1.40;;;;;;;;;;5037877;28;20422;-67
2021/10/04 04:16:05;;;;;;;2.10;1.37;;;;;;;;;;5038587;28;20403;-67
2021/10/04 04:18:32;;;;;;;3.43;1.37;;;;;;;;;;5037627;28;20501;-66
2021/10/04 04:20:58;;;;;;;2.90;1.63;;;;;;;;;;5037695;28;20403;-67
2021/10/04 04:23:24;;;;;;;1.87;1.30;;;;;;;;;;5036844;28;20450;-67
2021/10/04 04:25:50;;;;;;;1.93;1.30;;;;;;;;;;5050753;28;20869;-66
2021/10/04 04:28:16;;;;;;;2.40;1.53;;;;;;;;;;5057159;28;20402;-67
2021/10/04 04:30:42;;;;;;;2.47;1.63;;;;;;;;;;5057148;28;20451;-67
2021/10/04 04:33:08;;;;;;;3.33;1.50;;;;;;;;;;5056717;28;20428;-66
2021/10/04 04:35:34;;;;;;;2.90;1.43;;;;;;;;;;5057025;28;20488;-67
2021/10/04 04:38:00;;;;;;;4.10;1.40;;;;;;;;;;5056813;28;20397;-66
2021/10/04 04:40:26;;;;;;;2.93;1.20;;;;;;;;;;5057086;28;20437;-66
2021/10/04 04:42:52;;;;;;;2.27;1.50;;;;;;;;;;5056883;28;20918;-66
2021/10/04 04:45:20;;;;;;;2.00;1.20;;;;;;;;;;5057281;28;20406;-67
2021/10/04 04:47:46;;;;;;;2.33;1.33;;;;;;;;;;5057096;28;20398;-66
2021/10/04 04:50:13;;;;;;;2.10;1.20;;;;;;;;;;5056171;28;20405;-67
2021/10/04 04:52:39;;;;;;;3.10;1.60;;;;;;;;;;5057051;28;20784;-67
2021/10/04 04:55:06;;;;;;;3.00;1.63;;;;;;;;;;5055913;28;20393;-67
2021/10/04 04:57:32;;;;;;;2.07;1.33;;;;;;;;;;5056048;28;20886;-67
2021/10/04 04:59:58;;;;;;;1.90;1.50;;;;;;;;;;5042776;28;20422;-67
2021/10/04 05:02:25;;;;;;;3.50;1.50;;;;;;;;;;5044931;28;20571;-66
2021/10/04 05:04:51;;;;;;;5.03;1.60;;;;;;;;;;5040905;28;20525;-67
2021/10/04 05:07:17;;;;;;;3.40;1.37;;;;;;;;;;5036132;28;20873;-67
2021/10/04 05:09:43;;;;;;;3.67;1.70;;;;;;;;;;5036606;28;20403;-67
2021/10/04 05:12:09;;;;;;;5.20;2.53;;;;;;;;;;5033419;28;20468;-67
2021/10/04 05:14:35;;;;;;;4.00;1.83;;;;;;;;;;5036574;28;20398;-67
2021/10/04 05:17:01;;;;;;;2.10;1.40;;;;;;;;;;5035738;28;20416;-66
2021/10/04 05:19:27;;;;;;;3.40;1.90;;;;;;;;;;5036060;28;20399;-67
2021/10/04 05:21:54;;;;;;;2.00;1.40;;;;;;;;;;5035870;28;20533;-67
2021/10/04 05:24:20;;;;;;;2.80;2.00;;;;;;;;;;5036241;28;20383;-66
2021/10/04 05:26:46;;;;;;;3.30;1.40;;;;;;;;;;5036472;28;20814;-66
2021/10/04 05:29:12;;;;;;;5.70;1.87;;;;;;;;;;5036361;28;20406;-67
2021/10/04 05:31:38;;;;;;;2.20;1.53;;;;;;;;;;5051346;28;20406;-67
2021/10/04 05:34:04;;;;;;;6.53;2.30;;;;;;;;;;5056419;28;20408;-66
2021/10/04 05:36:33;;;;;;;2.20;1.70;;;;;;;;;;5054988;28;20493;-67
2021/10/04 05:39:00;;;;;;;2.50;1.60;;;;;;;;;;5056012;28;20402;-67
2021/10/04 05:41:26;;;;;;;3.50;1.40;;;;;;;;;;5055672;28;20445;-67
2021/10/04 05:43:53;;;;;;;3.10;1.60;;;;;;;;;;5055574;28;20476;-67
2021/10/04 05:46:19;;;;;;;2.80;2.10;;;;;;;;;;5055431;28;20535;-67
2021/10/04 05:48:45;;;;;;;2.77;1.80;;;;;;;;;;5054193;28;20404;-66
2021/10/04 05:51:11;;;;;;;2.60;1.80;;;;;;;;;;5053858;28;20887;-67
2021/10/04 05:53:37;;;;;;;4.90;1.97;;;;;;;;;;5054733;28;20501;-66
2021/10/04 05:56:03;;;;;;;2.40;1.50;;;;;;;;;;5056981;28;20531;-67
2021/10/04 05:58:29;;;;;;;2.10;1.50;;;;;;;;;;5060224;28;20402;-67
2021/10/04 06:00:55;;;;;;;2.23;1.57;;;;;;;;;;5042278;28;20414;-66
2021/10/04 06:03:22;;;;;;;12.80;2.00;;;;;;;;;;5040131;28;20900;-66
2021/10/04 06:05:48;;;;;;;5.57;2.00;;;;;;;;;;5040223;28;20453;-67
2021/10/04 06:08:14;;;;;;;2.40;1.53;;;;;;;;;;5039996;28;20421;-66
2021/10/04 06:10:40;;;;;;;2.33;1.77;;;;;;;;;;5040206;28;20906;-67
2021/10/04 06:13:06;;;;;;;3.50;1.77;;;;;;;;;;5039575;28;20911;-67
2021/10/04 06:15:32;;;;;;;3.10;2.40;;;;;;;;;;5039349;28;20406;-67
2021/10/04 06:17:58;;;;;;;3.00;1.77;;;;;;;;;;5038515;28;20494;-66
2021/10/04 06:20:24;;;;;;;6.13;2.00;;;;;;;;;;5039422;28;20406;-67
2021/10/04 06:22:51;;;;;;;4.70;1.90;;;;;;;;;;5038518;28;20454;-66
2021/10/04 06:25:18;;;;;;;2.87;1.77;;;;;;;;;;5039049;28;20418;-67
2021/10/04 06:27:45;;;;;;;2.30;1.87;;;;;;;;;;5038949;28;20394;-66
2021/10/04 06:30:11;;;;;;;3.77;2.10;;;;;;;;;;5038940;28;20398;-67
2021/10/04 06:32:37;;;;;;;5.60;1.90;;;;;;;;;;5039297;28;20866;-66
2021/10/04 06:35:04;;;;;;;3.33;1.80;;;;;;;;;;5054419;28;20926;-67
2021/10/04 06:37:30;;;;;;;3.40;1.87;;;;;;;;;;5038897;28;20485;-67
2021/10/04 06:39:56;;;;;;;3.87;1.80;;;;;;;;;;5039093;28;20508;-67
2021/10/04 06:42:24;;;;;;;4.70;2.03;;;;;;;;;;5056040;28;20438;-66
2021/10/04 06:44:50;;;;;;;3.27;1.77;;;;;;;;;;5057858;28;20422;-66
2021/10/04 06:47:16;;;;;;;2.60;1.70;;;;;;;;;;5050070;28;20457;-66
2021/10/04 06:49:42;;;;;;;4.60;2.33;;;;;;;;;;5057004;28;20416;-67
2021/10/04 06:52:08;;;;;;;3.90;2.27;;;;;;;;;;5057354;28;20429;-67
2021/10/04 06:54:35;;;;;;;2.70;1.83;;;;;;;;;;5037305;28;20433;-67
2021/10/04 06:57:01;;;;;;;2.60;1.90;;;;;;;;;;5050606;28;20429;-67
2021/10/04 06:59:27;;;;;;;5.90;2.30;;;;;;;;;;5054854;28;20421;-68
2021/10/04 07:01:53;;;;;;;6.70;2.50;;;;;;;;;;5050638;28;20452;-71
2021/10/04 07:04:20;;;;;;;2.37;1.90;;;;;;;;;;5050368;28;20420;-69
2021/10/04 07:06:46;;;;;;;5.67;2.13;;;;;;;;;;5050919;28;20458;-67
2021/10/04 07:09:12;;;;;;;5.90;3.20;;;;;;;;;;5052875;28;20508;-67
2021/10/04 07:11:38;;;;;;;2.90;2.30;;;;;;;;;;5055600;28;20413;-69
2021/10/04 07:14:04;;;;;;;4.80;2.30;;;;;;;;;;5061837;28;20450;-69
2021/10/04 07:16:30;;;;;;;5.30;2.40;;;;;;;;;;5055427;28;20425;-70
2021/10/04 07:18:56;;;;;;;5.60;2.30;;;;;;;;;;5055657;28;20471;-68
2021/10/04 07:21:22;;;;;;;2.57;2.00;;;;;;;;;;5055397;28;20488;-73
2021/10/04 07:23:49;;;;;;;3.07;2.10;;;;;;;;;;5053523;28;20445;-70
2021/10/04 07:26:15;;;;;;;3.60;2.27;;;;;;;;;;5053040;28;20456;-73
2021/10/04 07:28:41;;;;;;;2.53;2.00;;;;;;;;;;5039921;28;20413;-72
2021/10/04 07:31:07;;;;;;;6.50;2.70;;;;;;;;;;5047551;28;20417;-71
2021/10/04 07:33:33;;;;;;;3.37;2.30;;;;;;;;;;5046824;28;20437;-67
2021/10/04 07:36:02;;;;;;;3.57;2.00;;;;;;;;;;5052330;28;20428;-72
2021/10/04 07:38:28;;;;;;;4.20;2.30;;;;;;;;;;5052085;28;20476;-70
2021/10/04 07:40:54;;;;;;;2.90;1.90;;;;;;;;;;5052472;28;20784;-71
2021/10/04 07:43:20;;;;;;;3.90;2.33;;;;;;;;;;5052308;28;20437;-70
2021/10/04 07:45:46;;;;;;;2.97;1.90;;;;;;;;;;5051827;28;20454;-71
2021/10/04 07:48:12;;;;;;;4.33;2.00;;;;;;;;;;5052525;28;20509;-70
2021/10/04 07:50:38;;;;;;;4.33;2.17;;;;;;;;;;5053298;28;20880;-70
2021/10/04 07:53:04;;;;;;;4.13;2.70;;;;;;;;;;5049308;28;20441;-71
2021/10/04 07:55:31;;;;;;;5.97;2.40;;;;;;;;;;5054191;28;20517;-68
2021/10/04 07:57:57;;;;;;;2.90;2.27;;;;;;;;;;5050934;28;20504;-73
2021/10/04 08:00:23;;;;;;;3.67;3.10;;;;;;;;;;5054071;28;20452;-71
2021/10/04 08:02:49;;;;;;;2.93;2.03;;;;;;;;;;5053878;28;20426;-70
2021/10/04 08:05:15;;;;;;;3.00;2.40;;;;;;;;;;5051750;28;20424;-71
2021/10/04 08:07:41;;;;;;;2.53;1.90;;;;;;;;;;5050781;28;21233;-68
2021/10/04 08:10:09;;;;;;;2.93;2.00;;;;;;;;;;5057377;28;20446;-69
2021/10/04 08:12:35;;;;;;;2.90;1.97;;;;;;;;;;5051681;28;20992;-68
2021/10/04 08:15:01;;;;;;;3.40;2.40;;;;;;;;;;5053105;28;20417;-73
2021/10/04 08:17:27;;;;;;;4.03;2.10;;;;;;;;;;5048952;28;20986;-70
2021/10/04 08:19:53;;;;;;;3.40;2.17;;;;;;;;;;5037071;28;20863;-68
2021/10/04 08:22:20;;;;;;;2.77;2.20;;;;;;;;;;5045341;28;20463;-72
2021/10/04 08:24:46;;;;;;;5.13;2.27;;;;;;;;;;5051210;28;20803;-70
2021/10/04 08:27:12;;;;;;;2.53;1.67;;;;;;;;;;5052818;28;20536;-71
2021/10/04 08:29:38;;;;;;;3.53;2.00;;;;;;;;;;5052069;28;20487;-70
2021/10/04 08:32:05;;;;;;;2.83;1.90;;;;;;;;;;5052560;28;20445;-75
2021/10/04 08:34:31;;;;;;;7.07;2.07;;;;;;;;;;5051467;28;20894;-72
2021/10/04 08:36:57;;;;;;;3.10;2.10;;;;;;;;;;5054712;28;20458;-72
2021/10/04 08:39:23;;;;;;;2.90;2.07;;;;;;;;;;5047967;28;20934;-72
2021/10/04 08:41:52;;;;;;;3.63;2.40;;;;;;;;;;5051531;28;20512;-74
2021/10/04 08:44:18;;;;;;;2.63;2.00;;;;;;;;;;5046065;28;20833;-76
2021/10/04 08:46:45;;;;;;;6.17;2.30;;;;;;;;;;5050358;28;20464;-71
2021/10/04 08:49:15;;;;;;;6.43;2.33;;;;;;;;;;5051040;28;20453;-74
2021/10/04 08:51:41;;;;;;;3.50;2.07;;;;;;;;;;5047049;28;20457;-71
2021/10/04 08:54:08;;;;;;;2.73;1.93;;;;;;;;;;5053368;28;20423;-73
2021/10/04 08:56:35;;;;;;;2.40;1.80;;;11.80;99.90;;;;;;5050449;28;20422;-70
2021/10/04 08:59:00;;;;;;;3.43;2.30;;;15.30;99.90;;;;;;5052752;28;20492;-70
2021/10/04 09:01:27;;;;;;;4.30;2.10;;;15.20;99.90;;;;;;5045037;28;20425;-68
2021/10/04 09:03:58;;;;;;;2.67;2.03;;;15.20;99.90;;;;;;5051135;28;20207;-69
2021/10/04 09:06:33;;;;;;;2.30;1.43;;;15.20;99.90;;;;;;5050710;28;20449;-70
2021/10/04 09:09:03;;;;;;;3.97;2.13;;;15.00;99.90;;;;;;5048736;28;20433;-72
2021/10/04 09:11:34;;;;;;;3.30;2.17;;;14.90;99.90;;;;;;5052898;28;20941;-71
2021/10/04 09:14:02;;;;;;;4.93;2.43;;;14.90;99.90;;;;;;5051082;28;20759;-71
2021/10/04 09:17:03;;;;;;;4.03;2.07;;;14.90;99.90;;;;;;5050982;28;20517;-70
2021/10/04 09:19:39;;;;;;;4.50;2.27;;;15.00;99.90;;;;;;5050207;28;20452;-71
2021/10/04 09:22:11;;;;;;;3.50;2.13;;;14.70;99.90;;;;;;5043724;28;20526;-68
2021/10/04 09:25:04;;;;;;;4.90;2.17;;;14.70;99.90;;;;;;5036843;28;20491;-70
2021/10/04 09:27:34;;;;;;;5.13;2.70;;;14.70;99.90;;;;;;5028319;28;20508;-72
2021/10/04 09:30:16;;;;;;;10.10;2.30;;;14.80;99.90;;;;;;5045414;28;20422;-67
2021/10/04 09:32:46;;;;;;;3.33;1.80;;;14.80;99.90;;;;;;5049132;28;20453;-70
2021/10/04 09:35:20;;;;;;;2.47;2.03;;;14.90;99.90;;;;;;5045992;28;21897;-70
2021/10/04 09:38:00;;;;;;;2.93;1.97;;;14.80;99.90;;;;;;5048247;28;20531;-70
2021/10/04 09:40:38;;;;;;;3.13;2.27;;;14.80;99.90;;;;;;5050279;28;20409;-69
2021/10/04 09:43:07;;;;;;;3.73;2.37;;;14.60;99.90;;;;;;5049179;28;20472;-66
2021/10/04 09:45:34;;;;;;;3.97;2.60;;;14.70;99.90;;;;;;5052308;28;20540;-71
2021/10/04 09:48:14;;;;;;;3.70;2.00;;;14.60;99.90;;;;;;5049709;28;20437;-67
2021/10/04 09:50:41;;;;;;;5.33;2.37;;;14.70;99.90;;;;;;5047336;28;20421;-69
2021/10/04 09:53:12;;;;;;;3.33;2.40;;;14.70;99.90;;;;;;5047043;28;20450;-68
2021/10/04 09:55:43;;;;;;;4.63;2.83;;;14.70;99.90;;;;;;5053383;28;20434;-66
2021/10/04 09:58:28;;;;;;;2.87;2.10;;;14.70;99.90;;;;;;5050495;28;20422;-68
2021/10/04 10:01:02;;;;;;;2.93;2.10;;;14.70;99.90;;;;;;5049795;28;20413;-67
2021/10/04 10:03:41;;;;;;;4.40;1.70;;;14.90;99.90;;;;;;5047421;28;20445;-69
2021/10/04 10:06:07;;;;;;;7.33;2.60;;;15.00;99.90;;;;;;5048889;28;20471;-71
2021/10/04 10:08:33;;;;;;;3.70;2.50;;;15.00;99.90;;;;;;5047785;28;20524;-72
2021/10/04 10:11:02;;;;;;;2.43;1.70;;;14.90;99.90;;;;;;5054774;28;20454;-71
2021/10/04 10:13:29;;;;;;;3.57;2.50;;;14.90;99.90;;;;;;5053605;28;20210;-73
2021/10/04 10:16:10;;;;;;;3.37;2.00;;;14.80;99.90;;;;;;5049205;28;20417;-72
2021/10/04 10:18:41;;;;;;;2.73;2.10;;;14.90;99.90;;;;;;5046541;28;20413;-69
2021/10/04 10:21:08;;;;;;;2.50;1.80;;;14.90;99.90;;;;;;5051180;28;20409;-73
2021/10/04 10:23:49;;;;;;;3.20;1.87;;;15.10;99.90;;;;;;5050467;28;20456;-72
2021/10/04 10:26:30;;;;;;;3.47;1.67;;;14.90;99.90;;;;;;5051404;28;20453;-70
2021/10/04 10:29:16;;;;;;;2.70;1.90;;;14.90;99.90;;;;;;5049475;28;20405;-71
2021/10/04 10:31:55;;;;;;;3.40;2.33;;;14.90;99.90;;;;;;5033802;28;20500;-71
2021/10/04 10:34:29;;;;;;;2.67;2.10;;;15.00;99.90;;;;;;5048173;28;20471;-72
2021/10/04 10:37:10;;;;;;;2.40;1.80;;;15.10;99.90;;;;;;5047103;28;20432;-70
2021/10/04 10:39:35;;;;;;;2.83;1.87;;;15.30;99.90;;;;;;5044778;28;20412;-70
2021/10/04 10:42:32;;;;;;;3.83;2.33;;;15.30;99.90;;;;;;5051734;28;20479;-74
2021/10/04 10:44:57;;;;;;;3.80;1.93;;;15.10;99.90;;;;;;5051473;28;20156;-72
2021/10/04 10:50:07;;;;;;;5.10;2.10;;;14.90;99.90;;;;;;5053304;28;20604;-69
2021/10/04 10:52:35;;;;;;;2.13;1.83;;;14.80;99.90;;;;;;5049186;28;20437;-68
2021/10/04 10:55:22;;;;;;;3.00;2.10;;;14.70;99.90;;;;;;5052977;28;20490;-67
2021/10/04 10:57:51;;;;;;;3.93;2.30;;;14.70;99.90;;;;;;5051629;28;20508;-69
2021/10/04 11:00:38;;;;;;;3.37;1.90;;;14.60;99.90;;;;;;5052601;28;20768;-71
2021/10/04 11:03:22;;;;;;;2.73;1.80;;;14.60;99.90;;;;;;5052442;28;20464;-68
2021/10/04 11:06:06;;;;;;;3.43;1.60;;;14.70;99.90;;;;;;5053633;28;20552;-70
2021/10/04 11:08:34;;;;;;;3.87;1.83;;;14.70;99.90;;;;;;5046249;28;20953;-68
2021/10/04 11:11:00;;;;;;;3.87;2.20;;;14.80;99.90;;;;;;5048528;28;20414;-70
2021/10/04 11:13:29;;;;;;;3.97;1.97;;;14.80;99.90;;;;;;5052350;28;20438;-69
2021/10/04 11:16:19;;;;;;;2.77;1.90;;;14.80;99.90;;;;;;5046955;28;20257;-69
2021/10/04 11:18:48;;;;;;;3.27;1.87;;;14.90;99.90;;;;;;5050755;28;20491;-69
2021/10/04 11:21:20;;;;;;;6.07;2.00;;;15.00;99.90;;;;;;5053253;28;20932;-69
2021/10/04 11:23:51;;;;;;;2.57;1.77;;;15.10;99.90;;;;;;5044561;28;20465;-70
2021/10/04 11:26:20;;;;;;;2.70;2.17;;;15.10;99.90;;;;;;5052279;28;20482;-69
2021/10/04 11:28:50;;;;;;;2.00;1.60;;;15.20;99.90;;;;;;5048570;28;20513;-69
2021/10/04 11:31:19;;;;;;;3.27;1.60;;;15.00;99.90;;;;;;5047544;28;20409;-69
2021/10/04 11:33:54;;;;;;;2.63;1.70;;;15.20;99.90;;;;;;5052036;28;20429;-69
2021/10/04 11:36:22;;;;;;;1.90;1.53;;;15.10;99.90;;;;;;5052430;28;20405;-69
2021/10/04 11:38:49;;;;;;;4.07;2.13;;;15.10;99.90;;;;;;5044463;28;20831;-69
2021/10/04 11:41:41;;;;;;;2.80;1.77;;;15.00;99.90;;;;;;5051881;28;20479;-68
2021/10/04 11:44:13;;;;;;;3.60;1.97;;;14.80;99.90;;;;;;5050998;28;20525;-69
2021/10/04 11:47:03;;;;;;;2.97;1.50;;;14.90;99.90;;;;;;5050321;28;20996;-69
2021/10/04 11:49:34;;;;;;;2.53;1.40;;;14.90;99.90;;;;;;5052505;28;20414;-68
2021/10/04 11:52:05;;;;;;;3.63;1.80;;;14.90;99.90;;;;;;5052447;28;20437;-67
2021/10/04 11:54:33;;;;;;;6.00;2.20;;;14.80;99.90;;;;;;5051416;28;20509;-68
2021/10/04 11:56:59;;;;;;;2.20;1.60;;;15.00;99.90;;;;;;5048339;28;20426;-69
2021/10/04 11:59:25;;;;;;;6.57;1.90;;;15.10;99.90;;;;;;5050748;28;20872;-69
2021/10/04 12:01:52;;;;;;;3.67;1.30;;;15.10;99.90;;;;;;5049505;28;20425;-69
2021/10/04 12:04:20;;;;;;;3.17;2.00;;;15.10;99.90;;;;;;5051717;28;20187;-69
2021/10/04 12:06:47;;;;;;;6.30;1.60;;;15.20;99.90;;;;;;5052014;28;20449;-68
2021/10/04 12:09:21;;;;;;;2.50;1.73;;;15.20;99.90;;;;;;5049202;28;20409;-68
2021/10/04 12:11:58;;;;;;;3.00;1.60;;;15.00;99.90;;;;;;5050468;28;20420;-68
2021/10/04 12:14:26;;;;;;;3.70;1.50;;;14.90;99.90;;;;;;5050070;28;20471;-67
2021/10/04 12:16:58;;;;;;;2.37;1.73;;;14.80;99.90;;;;;;5052264;28;20786;-69
2021/10/04 12:19:24;;;;;;;5.70;1.90;;;14.80;99.90;;;;;;5050548;28;20886;-67
2021/10/04 12:21:51;;;;;;;2.30;1.23;;;14.90;99.90;;;;;;5049692;28;20535;-67
2021/10/04 12:24:21;;;;;;;1.80;1.20;;;14.80;99.90;;;;;;5051034;28;20187;-67
2021/10/04 12:26:52;;;;;;;3.50;1.27;;;14.70;99.90;;;;;;5050625;28;20448;-67
2021/10/04 12:29:27;;;;;;;2.07;1.40;;;14.80;99.90;;;;;;5050927;28;20495;-68
2021/10/04 12:31:53;;;;;;;3.30;1.40;;;14.80;99.90;;;;;;5050373;28;20495;-68
2021/10/04 12:34:24;;;;;;;2.43;1.50;;;14.70;99.90;;;;;;5050356;28;20978;-69
2021/10/04 12:36:50;;;;;;;2.70;1.80;;;14.70;99.90;;;;;;5050219;28;20273;-68
2021/10/04 12:39:17;;;;;;;2.67;1.50;;;14.50;99.90;;;;;;5050781;28;20508;-69
2021/10/04 12:41:46;;;;;;;4.07;2.00;;;14.50;99.90;;;;;;5051763;28;20429;-69
2021/10/04 12:44:17;;;;;;;2.37;1.57;;;14.60;99.90;;;;;;5045540;28;20480;-68
2021/10/04 12:47:19;;;;;;;2.87;1.73;;;14.50;99.90;;;;;;5051025;28;20453;-68
2021/10/04 12:49:58;;;;;;;2.73;1.57;;;14.40;99.90;;;;;;4992095;28;20428;-68
2021/10/04 12:52:29;;;;;;;7.07;4.07;;;14.50;99.90;;;;;;5048448;28;20448;-68
2021/10/04 12:54:57;;;;;;;2.50;2.10;;;14.60;99.90;;;;;;5050600;28;20424;-69
2021/10/04 12:57:28;;;;;;;4.73;1.90;;;14.40;99.90;;;;;;5049453;28;20512;-69
2021/10/04 13:00:04;;;;;;;4.37;2.00;;;14.30;99.90;;;;;;5048461;28;20424;-68
2021/10/04 13:02:30;;;;;;;3.37;1.77;;;14.40;99.90;;;;;;5049922;28;20836;-69
2021/10/04 13:04:57;;;;;;;2.07;1.43;;;14.50;99.90;;;;;;5050904;28;20432;-68
2021/10/04 13:07:26;;;;;;;1.80;1.43;;;14.60;99.90;;;;;;5044871;28;20199;-68
2021/10/04 13:09:52;;;;;;;3.30;1.33;;;14.60;99.90;;;;;;5051393;28;20414;-68
2021/10/04 13:12:22;;;;;;;3.30;1.53;;;14.50;99.90;;;;;;5049892;28;20441;-69
2021/10/04 13:14:47;;;;;;;1.90;1.30;;;14.50;99.90;;;;;;5049840;28;20426;-71
2021/10/04 13:17:13;;;;;;;2.47;1.40;;;14.50;99.90;;;;;;5048836;28;20429;-70
2021/10/04 13:19:39;;;;;;;2.37;1.27;;;14.60;99.90;;;;;;5051679;28;20514;-69
2021/10/04 13:22:05;;;;;;;3.30;1.30;;;14.60;99.90;;;;;;5047184;28;20456;-69
2021/10/04 13:24:31;;;;;;;3.03;1.23;;;14.60;99.90;;;;;;5051031;28;20693;-69
2021/10/04 13:26:57;;;;;;;2.60;1.40;;;14.60;99.90;;;;;;5046700;28;20571;-69
2021/10/04 13:29:23;;;;;;;3.63;1.63;;;14.50;99.90;;;;;;5049995;28;20167;-69
2021/10/04 13:31:48;;;;;;;4.40;1.70;;;14.60;99.90;;;;;;5048146;28;20440;-69
2021/10/04 13:34:15;;;;;;;2.10;1.37;;;14.50;99.90;;;;;;5048827;28;20175;-69
2021/10/04 13:36:42;;;;;;;2.50;1.57;;;14.50;99.90;;;;;;5046074;28;20187;-69
2021/10/04 13:39:09;;;;;;;2.67;1.33;;;14.50;99.90;;;;;;5050239;28;20425;-69
2021/10/04 13:41:35;;;;;;;5.17;1.70;;;14.60;99.90;;;;;;5047249;28;20425;-70
2021/10/04 13:44:01;;;;;;;3.30;1.70;;;14.40;99.90;;;;;;5050582;28;20839;-70
2021/10/04 13:46:27;;;;;;;3.87;1.67;;;14.30;99.90;;;;;;5050844;28;20543;-70
2021/10/04 13:48:52;;;;;;;2.30;1.73;;;14.50;99.90;;;;;;5050122;28;20178;-70
2021/10/04 13:51:22;;;;;;;3.23;2.17;;;14.30;99.90;;;;;;5046680;28;20175;-69
2021/10/04 13:53:50;;;;;;;1.93;1.30;;;14.30;99.90;;;;;;5049767;28;20204;-69
2021/10/04 13:56:20;;;;;;;2.30;1.63;;;14.40;99.90;;;;;;5049572;28;20524;-69
2021/10/04 13:58:46;;;;;;;2.27;1.30;;;14.40;99.90;;;;;;5049782;28;20425;-70
2021/10/04 14:01:12;;;;;;;2.47;1.60;;;14.30;99.90;;;;;;5049362;28;20417;-69
2021/10/04 14:03:37;;;;;;;1.90;1.40;;;14.30;99.90;;;;;;5049974;28;20441;-69
2021/10/04 14:06:05;;;;;;;3.23;2.00;;;14.20;99.90;;;;;;5048929;28;20198;-69